Time;durP1;ratioP1;P1;durP2;ratioP2;P2;SDS_P1;SDS_P2;PMS_P1;PMS_P2;Temp;Humidity;BMP_temperature;BMP_pressure;BME280_temperature;BME280_humidity;BME280_pressure;Samples;Min_cycle;Max_cycle;Signal;HPM_P1;HPM_P2
2021/12/25 00:01:05;;;;;;;5.13;1.67;;;28.80;99.90;;;;;;5008354;28;20260;-81
2021/12/25 00:03:36;;;;;;;4.15;1.60;;;28.80;99.90;;;;;;5006910;28;20287;-81
2021/12/25 00:06:07;;;;;;;6.68;1.63;;;28.80;99.90;;;;;;5021031;28;20438;-82
2021/12/25 00:08:40;;;;;;;4.97;1.48;;;28.80;99.90;;;;;;5026834;28;20324;-81
2021/12/25 00:11:11;;;;;;;6.13;1.67;;;28.80;99.90;;;;;;5009309;28;20222;-82
2021/12/25 00:13:42;;;;;;;4.55;1.38;;;28.90;99.90;;;;;;5010210;28;20735;-81
2021/12/25 00:16:13;;;;;;;5.55;1.30;;;28.90;99.90;;;;;;5016346;28;20225;-81
2021/12/25 00:18:44;;;;;;;4.45;1.40;;;28.90;99.90;;;;;;5037010;28;20228;-81
2021/12/25 00:21:15;;;;;;;3.75;1.20;;;29.00;99.90;;;;;;5039345;28;20243;-81
2021/12/25 00:23:49;;;;;;;6.32;1.23;;;29.00;99.90;;;;;;5029829;28;20201;-81
2021/12/25 00:26:38;;;;;;;2.60;1.30;;;29.00;99.90;;;;;;5022161;28;20197;-81
2021/12/25 00:29:30;;;;;;;4.30;1.42;;;29.10;99.90;;;;;;5033708;28;20192;-81
2021/12/25 00:32:12;;;;;;;5.05;1.50;;;29.20;99.90;;;;;;5032823;28;20227;-83
2021/12/25 00:34:43;;;;;;;3.88;1.20;;;29.20;99.90;;;;;;5027812;28;20221;-81
2021/12/25 00:37:14;;;;;;;4.57;1.20;;;29.20;99.90;;;;;;5033153;28;20227;-81
2021/12/25 00:39:47;;;;;;;3.22;1.13;;;29.20;99.90;;;;;;5032098;28;20213;-81
2021/12/25 00:42:17;;;;;;;3.47;1.10;;;29.20;99.90;;;;;;5033701;28;20236;-81
2021/12/25 00:44:49;;;;;;;3.90;1.40;;;29.30;99.90;;;;;;5034264;28;20197;-81
2021/12/25 00:47:21;;;;;;;2.90;1.10;;;29.30;99.90;;;;;;5031700;28;20241;-81
2021/12/25 00:49:52;;;;;;;3.22;1.30;;;29.30;99.90;;;;;;5030484;28;20255;-81
2021/12/25 00:52:22;;;;;;;3.97;1.20;;;29.20;99.90;;;;;;5033140;28;20217;-81
2021/12/25 00:54:55;;;;;;;3.78;1.27;;;29.20;99.90;;;;;;5031826;28;20217;-82
2021/12/25 00:57:26;;;;;;;4.57;1.30;;;29.20;99.90;;;;;;5032339;28;20214;-81
2021/12/25 00:59:56;;;;;;;5.20;1.20;;;29.20;99.90;;;;;;5022425;28;20274;-82
2021/12/25 01:02:27;;;;;;;4.43;1.23;;;29.30;99.90;;;;;;5022960;28;20292;-82
2021/12/25 01:04:58;;;;;;;3.00;1.08;;;29.20;99.90;;;;;;5026808;28;20221;-81
2021/12/25 01:07:28;;;;;;;3.10;0.98;;;29.20;99.90;;;;;;5031811;28;20682;-82
2021/12/25 01:10:02;;;;;;;4.15;1.00;;;29.20;99.90;;;;;;5033250;28;20201;-82
2021/12/25 01:12:45;;;;;;;2.20;1.00;;;29.20;99.90;;;;;;5028931;28;20213;-81
2021/12/25 01:15:19;;;;;;;3.85;1.10;;;29.20;99.90;;;;;;5030738;28;20761;-81
2021/12/25 01:26:31;;;;;;;5.30;1.20;;;29.20;99.90;;;;;;5005847;28;20409;-81
2021/12/25 01:31:45;;;;;;;4.40;1.15;;;29.30;99.90;;;;;;5028988;28;20196;-83
2021/12/25 01:35:00;;;;;;;5.32;1.35;;;29.30;99.90;;;;;;5014315;28;20289;-83
2021/12/25 01:37:39;;;;;;;2.08;1.10;;;29.30;99.90;;;;;;5022742;28;20228;-80
2021/12/25 01:40:25;;;;;;;5.97;1.30;;;29.40;99.90;;;;;;5031155;28;20612;-80
2021/12/25 01:48:39;;;;;;;3.78;1.00;;;29.40;99.90;;;;;;5031860;28;20236;-82
2021/12/25 01:51:10;;;;;;;4.75;1.05;;;29.40;99.90;;;;;;5031723;28;20296;-84
2021/12/25 01:53:41;;;;;;;3.25;1.05;;;29.50;99.90;;;;;;5031336;28;20657;-82
2021/12/25 01:56:12;;;;;;;3.00;1.08;;;29.50;99.90;;;;;;5029790;28;20244;-82
2021/12/25 01:58:45;;;;;;;5.10;1.08;;;29.50;99.90;;;;;;5029487;28;20630;-83
2021/12/25 02:01:16;;;;;;;3.63;1.10;;;29.60;99.90;;;;;;5023923;28;20204;-83
2021/12/25 02:03:47;;;;;;;3.47;0.82;;;29.60;99.90;;;;;;5030866;28;20263;-82
2021/12/25 02:06:17;;;;;;;4.28;1.30;;;29.60;99.90;;;;;;5031743;28;20193;-82
2021/12/25 02:08:48;;;;;;;2.97;1.10;;;29.70;99.90;;;;;;5031526;28;20295;-82
2021/12/25 02:11:22;;;;;;;3.80;1.00;;;29.70;99.90;;;;;;5012463;28;20731;-81
2021/12/25 02:13:58;;;;;;;4.45;0.85;;;29.80;99.90;;;;;;5016017;28;20193;-82
2021/12/25 02:16:36;;;;;;;4.25;1.10;;;29.70;99.90;;;;;;5023573;28;20266;-82
2021/12/25 02:19:10;;;;;;;3.05;0.93;;;29.70;99.90;;;;;;5029410;28;20201;-81
2021/12/25 02:21:43;;;;;;;1.65;1.00;;;29.60;99.90;;;;;;5028473;28;20200;-81
2021/12/25 02:24:15;;;;;;;3.08;1.15;;;29.70;99.90;;;;;;5023405;28;20314;-81
2021/12/25 02:26:47;;;;;;;2.30;0.90;;;29.60;99.90;;;;;;5029736;28;20771;-82
2021/12/25 02:29:17;;;;;;;2.90;1.00;;;29.70;99.90;;;;;;5032098;28;20225;-83
2021/12/25 02:31:48;;;;;;;6.07;1.20;;;29.70;99.90;;;;;;5031651;28;20201;-81
2021/12/25 02:34:19;;;;;;;5.93;1.20;;;29.80;99.90;;;;;;5026124;28;20212;-81
2021/12/25 02:36:52;;;;;;;3.78;1.20;;;29.70;99.90;;;;;;5031612;28;20641;-81
2021/12/25 02:39:23;;;;;;;3.33;1.20;;;29.70;99.90;;;;;;5045468;28;20224;-80
2021/12/25 02:41:53;;;;;;;2.50;1.10;;;29.80;99.90;;;;;;5030616;28;20645;-81
2021/12/25 02:44:24;;;;;;;5.38;1.13;;;29.70;99.90;;;;;;5030187;28;20259;-82
2021/12/25 02:46:55;;;;;;;3.65;1.20;;;29.70;99.90;;;;;;5030871;28;20275;-81
2021/12/25 02:49:26;;;;;;;3.30;1.02;;;29.70;99.90;;;;;;5028163;28;20229;-81
2021/12/25 02:52:00;;;;;;;4.03;0.95;;;29.60;99.90;;;;;;5030537;28;20217;-83
2021/12/25 02:54:31;;;;;;;4.00;1.10;;;29.80;99.90;;;;;;5011643;28;20660;-83
2021/12/25 02:57:02;;;;;;;3.65;1.15;;;29.70;99.90;;;;;;5015904;28;20247;-80
2021/12/25 02:59:32;;;;;;;4.35;1.30;;;29.80;99.90;;;;;;5025588;28;20350;-81
2021/12/25 03:02:08;;;;;;;4.93;1.00;;;29.70;99.90;;;;;;5016931;28;20194;-81
2021/12/25 03:04:40;;;;;;;3.05;1.20;;;29.80;99.90;;;;;;5012932;28;20201;-81
2021/12/25 03:07:13;;;;;;;5.15;1.20;;;29.80;99.90;;;;;;5030719;28;20643;-81
2021/12/25 03:09:44;;;;;;;2.35;1.00;;;29.80;99.90;;;;;;5031658;28;20600;-81
2021/12/25 03:12:17;;;;;;;5.85;1.00;;;29.70;99.90;;;;;;5030719;28;20255;-81
2021/12/25 03:15:06;;;;;;;3.13;1.05;;;29.70;99.90;;;;;;5029610;28;20205;-81
2021/12/25 03:17:37;;;;;;;3.20;0.90;;;29.80;99.90;;;;;;5021314;28;20218;-81
2021/12/25 03:20:11;;;;;;;2.72;0.85;;;29.80;99.90;;;;;;5021948;28;20248;-81
2021/12/25 03:22:44;;;;;;;2.78;1.00;;;29.90;99.90;;;;;;5008322;28;20198;-81
2021/12/25 03:25:18;;;;;;;4.70;0.90;;;30.00;99.90;;;;;;5008831;28;20264;-80
2021/12/25 03:27:51;;;;;;;3.67;1.25;;;30.00;99.90;;;;;;5009484;28;20197;-80
2021/12/25 03:30:24;;;;;;;5.75;1.20;;;30.10;99.90;;;;;;5012142;28;20594;-80
2021/12/25 03:32:55;;;;;;;5.70;1.05;;;30.10;99.90;;;;;;5008627;28;20209;-80
2021/12/25 03:35:26;;;;;;;1.60;0.73;;;30.00;99.90;;;;;;5007492;28;20189;-80
2021/12/25 03:37:58;;;;;;;4.47;0.95;;;30.00;99.90;;;;;;5007535;28;20201;-80
2021/12/25 03:40:29;;;;;;;4.10;0.93;;;29.90;99.90;;;;;;5013674;28;20209;-80
2021/12/25 03:43:00;;;;;;;4.82;0.98;;;29.80;99.90;;;;;;5007938;28;20229;-80
2021/12/25 03:45:32;;;;;;;3.75;0.98;;;29.80;99.90;;;;;;5007844;28;20206;-80
2021/12/25 03:48:10;;;;;;;2.22;1.00;;;29.70;99.90;;;;;;5007573;28;20243;-80
2021/12/25 03:57:38;;;;;;;2.22;0.88;;;30.00;99.90;;;;;;5008455;28;20789;-80
2021/12/25 03:59:17;;;;;;;3.40;0.90;;;30.00;99.90;;;;;;5007770;28;20250;-80
2021/12/25 04:01:53;;;;;;;4.10;1.00;;;30.00;99.90;;;;;;5009621;28;20258;-80
2021/12/25 04:04:32;;;;;;;3.28;1.00;;;30.00;99.90;;;;;;5006731;28;22036;-79
2021/12/25 04:07:07;;;;;;;4.70;1.00;;;30.10;99.90;;;;;;5008319;28;20209;-80
2021/12/25 04:09:41;;;;;;;2.28;1.00;;;30.20;99.90;;;;;;5009150;28;20271;-80
2021/12/25 04:12:16;;;;;;;6.22;1.08;;;30.20;99.90;;;;;;5010797;28;20211;-80
2021/12/25 04:14:47;;;;;;;4.18;1.00;;;30.30;99.90;;;;;;5008522;28;20680;-80
2021/12/25 04:17:19;;;;;;;3.50;1.05;;;30.10;99.90;;;;;;5013505;28;20250;-81
2021/12/25 04:19:50;;;;;;;4.28;1.02;;;30.20;99.90;;;;;;5028103;28;20220;-82
2021/12/25 04:22:27;;;;;;;3.65;1.10;;;30.20;99.90;;;;;;5030502;28;20185;-80
2021/12/25 04:25:00;;;;;;;2.75;0.93;;;30.20;99.90;;;;;;5029456;28;20203;-81
2021/12/25 04:27:32;;;;;;;6.30;1.15;;;30.30;99.90;;;;;;5029418;28;20205;-80
2021/12/25 04:30:05;;;;;;;5.20;1.23;;;30.30;99.90;;;;;;5029900;28;20225;-80
2021/12/25 05:03:20;;;;;;;6.65;1.00;;;31.20;99.90;;;;;;5029956;28;20618;-81
2021/12/25 05:05:51;;;;;;;2.50;0.90;;;31.40;99.90;;;;;;5029595;28;20197;-81
2021/12/25 05:08:22;;;;;;;3.30;0.90;;;31.50;99.90;;;;;;5029713;28;20630;-81
2021/12/25 05:10:54;;;;;;;3.90;1.08;;;31.50;99.90;;;;;;5031733;28;20204;-81
2021/12/25 05:13:27;;;;;;;2.30;0.90;;;31.50;99.90;;;;;;5031179;28;20212;-81
2021/12/25 05:15:57;;;;;;;5.15;1.20;;;31.50;99.90;;;;;;5019385;28;20668;-81
2021/12/25 05:18:28;;;;;;;4.57;1.00;;;31.40;99.90;;;;;;5042025;28;20235;-81
2021/12/25 05:20:59;;;;;;;3.47;0.95;;;31.40;99.90;;;;;;5020925;28;20185;-81
2021/12/25 05:23:29;;;;;;;3.92;0.93;;;31.40;99.90;;;;;;5031288;28;20204;-80
2021/12/25 05:26:00;;;;;;;3.65;1.10;;;31.20;99.90;;;;;;5026293;28;20198;-80
2021/12/25 05:28:39;;;;;;;5.88;1.00;;;31.20;99.90;;;;;;5011187;28;20218;-80
2021/12/25 05:31:11;;;;;;;4.47;1.00;;;31.30;99.90;;;;;;5025119;28;20470;-80
2021/12/25 05:33:43;;;;;;;3.78;1.20;;;31.40;99.90;;;;;;5031105;28;20208;-80
2021/12/25 05:36:14;;;;;;;5.22;1.20;;;31.60;99.90;;;;;;5032381;28;20298;-80
2021/12/25 05:38:44;;;;;;;3.22;0.80;;;31.50;99.90;;;;;;5031488;28;20224;-80
2021/12/25 05:41:16;;;;;;;4.13;1.00;;;31.40;99.90;;;;;;5033642;28;20197;-80
2021/12/25 05:43:48;;;;;;;4.43;0.93;;;31.50;99.90;;;;;;5032463;28;20205;-80
2021/12/25 05:46:19;;;;;;;3.15;1.10;;;31.70;99.90;;;;;;5032970;28;20240;-80
2021/12/25 05:48:50;;;;;;;4.00;1.10;;;31.80;99.90;;;;;;5032523;28;20722;-80
2021/12/25 05:51:21;;;;;;;2.03;0.70;;;31.90;99.90;;;;;;5032859;28;20255;-80
2021/12/25 05:53:52;;;;;;;2.65;0.85;;;31.60;99.90;;;;;;5032929;28;20204;-80
2021/12/25 05:56:23;;;;;;;3.13;0.98;;;31.50;99.90;;;;;;5032982;28;20726;-80
2021/12/25 05:58:56;;;;;;;3.78;0.95;;;31.40;99.90;;;;;;5033184;28;20205;-81
2021/12/25 06:01:26;;;;;;;3.35;1.00;;;31.20;99.90;;;;;;5033021;28;20236;-80
2021/12/25 06:03:57;;;;;;;3.55;0.88;;;30.80;99.90;;;;;;5017091;28;20210;-80
2021/12/25 06:06:28;;;;;;;9.20;1.30;;;30.50;99.90;;;;;;5009195;28;20234;-81
2021/12/25 06:08:59;;;;;;;3.78;1.15;;;30.50;99.90;;;;;;5031357;28;20275;-81
2021/12/25 06:11:32;;;;;;;5.18;1.25;;;30.30;99.90;;;;;;5030545;28;20201;-81
2021/12/25 06:14:10;;;;;;;5.10;1.10;;;30.10;99.90;;;;;;5030970;28;20232;-80
2021/12/25 06:16:40;;;;;;;4.75;1.33;;;29.90;99.90;;;;;;5031907;28;20204;-80
2021/12/25 06:19:11;;;;;;;4.43;1.10;;;29.70;99.90;;;;;;5031884;28;20221;-81
2021/12/25 06:21:43;;;;;;;3.80;1.05;;;29.70;99.90;;;;;;5030468;28;20255;-81
2021/12/25 06:24:15;;;;;;;4.10;0.90;;;29.70;99.90;;;;;;5032018;28;20197;-81
2021/12/25 06:26:45;;;;;;;4.80;1.27;;;29.70;99.90;;;;;;5030484;28;20562;-81
2021/12/25 06:29:19;;;;;;;5.45;1.20;;;29.60;99.90;;;;;;5028437;28;20217;-80
2021/12/25 06:31:52;;;;;;;4.97;1.38;;;29.60;99.90;;;;;;5018259;28;20203;-81
2021/12/25 06:34:23;;;;;;;5.63;1.13;;;29.50;99.90;;;;;;5020589;28;20201;-80
2021/12/25 06:36:54;;;;;;;3.92;1.08;;;29.20;99.90;;;;;;5032349;28;20618;-81
2021/12/25 06:39:24;;;;;;;6.10;1.25;;;29.10;99.90;;;;;;5031655;28;20205;-81
2021/12/25 06:41:55;;;;;;;5.07;1.10;;;29.00;99.90;;;;;;5031599;28;20627;-81
2021/12/25 06:44:28;;;;;;;3.22;0.80;;;28.90;99.90;;;;;;5030746;28;20201;-81
2021/12/25 06:46:59;;;;;;;3.78;1.00;;;28.80;99.90;;;;;;5031227;28;20221;-80
2021/12/25 06:49:30;;;;;;;4.93;1.25;;;28.60;99.90;;;;;;5036784;28;20228;-81
2021/12/25 06:52:01;;;;;;;6.40;1.45;;;28.60;99.90;;;;;;5051398;28;20231;-80
2021/12/25 06:54:32;;;;;;;4.55;1.20;;;28.50;99.90;;;;;;5051058;28;20192;-80
2021/12/25 06:57:04;;;;;;;3.08;1.17;;;28.30;99.90;;;;;;5011695;28;20202;-80
2021/12/25 06:59:36;;;;;;;5.70;1.08;;;28.20;99.90;;;;;;5010570;28;20745;-80
2021/12/25 07:02:07;;;;;;;6.35;1.13;;;28.10;99.90;;;;;;5021519;28;20201;-80
2021/12/25 07:04:38;;;;;;;4.72;1.30;;;28.10;99.90;;;;;;5025695;28;20201;-80
2021/12/25 07:07:10;;;;;;;6.20;1.52;;;28.00;99.90;;;;;;5022248;28;20664;-80
2021/12/25 07:09:40;;;;;;;5.85;1.30;;;28.00;99.90;;;;;;5027357;28;20225;-80
2021/12/25 07:12:12;;;;;;;6.30;1.30;;;28.00;99.90;;;;;;5011639;28;20243;-81
2021/12/25 07:14:44;;;;;;;6.47;1.33;;;27.90;99.90;;;;;;5009898;28;20197;-81
2021/12/25 07:17:15;;;;;;;4.70;1.27;;;28.00;99.90;;;;;;5010306;28;20211;-82
2021/12/25 07:19:45;;;;;;;9.27;1.77;;;27.90;99.90;;;;;;5010019;28;20263;-81
2021/12/25 07:22:16;;;;;;;6.43;1.60;;;27.80;99.90;;;;;;5010453;28;20197;-81
2021/12/25 07:24:47;;;;;;;6.45;1.30;;;27.80;99.90;;;;;;5010188;28;20218;-80
2021/12/25 07:27:17;;;;;;;6.55;1.30;;;27.80;99.90;;;;;;5005630;28;20649;-80
2021/12/25 07:29:50;;;;;;;7.63;1.58;;;27.80;99.90;;;;;;5005305;28;20628;-80
2021/12/25 07:32:21;;;;;;;9.80;1.92;;;27.70;99.90;;;;;;5016974;28;20197;-80
2021/12/25 07:34:51;;;;;;;6.05;1.40;;;27.70;99.90;;;;;;5029578;28;20197;-81
2021/12/25 07:37:22;;;;;;;5.82;1.58;;;27.70;99.90;;;;;;5030840;28;20247;-81
2021/12/25 07:39:53;;;;;;;6.90;1.17;;;27.60;99.90;;;;;;5032306;28;20201;-80
2021/12/25 07:42:23;;;;;;;3.65;1.15;;;27.50;99.90;;;;;;5050962;28;20314;-80
2021/12/25 07:45:02;;;;;;;6.65;1.50;;;27.40;99.90;;;;;;5036565;28;20197;-80
2021/12/25 07:47:34;;;;;;;6.70;1.40;;;27.40;99.90;;;;;;5029343;28;20233;-81
2021/12/25 07:50:05;;;;;;;7.32;1.55;;;27.40;99.90;;;;;;5029745;28;20251;-81
2021/12/25 07:52:36;;;;;;;5.15;1.30;;;27.40;99.90;;;;;;5030324;28;20243;-81
2021/12/25 07:55:07;;;;;;;4.85;1.15;;;27.30;99.90;;;;;;5029602;28;20228;-81
2021/12/25 07:57:37;;;;;;;6.20;1.48;;;27.30;99.90;;;;;;5018365;28;20629;-82
2021/12/25 08:00:13;;;;;;;8.77;1.10;;;27.30;99.90;;;;;;5029076;28;20205;-81
2021/12/25 08:02:45;;;;;;;2.92;1.05;;;27.20;99.90;;;;;;5010742;28;20796;-81
2021/12/25 08:05:16;;;;;;;4.82;1.15;;;27.10;99.90;;;;;;5029164;28;20271;-81
2021/12/25 08:07:47;;;;;;;6.18;1.35;;;27.20;99.90;;;;;;5028616;28;20617;-80
2021/12/25 08:10:20;;;;;;;7.55;1.60;;;27.10;99.90;;;;;;5021329;28;20224;-80
2021/12/25 08:12:52;;;;;;;7.22;1.50;;;27.10;99.90;;;;;;5030615;28;20668;-80
2021/12/25 08:15:25;;;;;;;5.47;1.50;;;27.10;99.90;;;;;;5030049;28;20205;-80
2021/12/25 08:17:57;;;;;;;6.50;1.40;;;27.10;99.90;;;;;;5028174;28;20197;-83
2021/12/25 08:20:29;;;;;;;6.53;1.33;;;27.00;99.90;;;;;;5029930;28;20201;-82
2021/12/25 08:22:59;;;;;;;5.60;1.27;;;27.00;99.90;;;;;;5029902;28;20193;-82
2021/12/25 08:25:30;;;;;;;6.72;1.38;;;26.90;99.90;;;;;;5032893;28;20208;-81
2021/12/25 08:28:01;;;;;;;8.27;1.58;;;26.90;99.90;;;;;;5005943;28;20197;-81
2021/12/25 08:30:35;;;;;;;7.82;1.98;;;26.80;99.90;;;;;;5020113;28;20290;-80
2021/12/25 08:33:05;;;;;;;9.05;1.77;;;26.70;99.90;;;;;;5049081;28;20211;-81
2021/12/25 08:35:40;;;;;;;7.75;1.55;;;26.70;99.90;;;;;;5036913;28;20629;-80
2021/12/25 08:38:14;;;;;;;4.13;1.20;;;26.60;99.90;;;;;;5030001;28;20203;-80
2021/12/25 08:40:46;;;;;;;5.25;2.10;;;26.60;99.90;;;;;;5030027;28;20201;-80
2021/12/25 08:43:24;;;;;;;7.70;3.30;;;26.60;99.90;;;;;;5029890;28;20200;-82
2021/12/25 08:46:10;;;;;;;5.97;1.40;;;26.60;99.90;;;;;;5041059;28;20386;-81
2021/12/25 08:48:44;;;;;;;7.50;2.00;;;26.60;99.90;;;;;;5040895;28;20205;-81
2021/12/25 08:51:17;;;;;;;7.82;1.25;;;26.60;99.90;;;;;;5053545;28;20598;-80
2021/12/25 08:53:47;;;;;;;7.18;1.23;;;26.60;99.90;;;;;;5051785;28;20678;-81
2021/12/25 08:56:18;;;;;;;4.82;1.10;;;26.50;99.90;;;;;;5041145;28;20565;-83
2021/12/25 08:58:49;;;;;;;7.10;1.60;;;26.50;99.90;;;;;;5033844;28;20197;-82
2021/12/25 09:01:22;;;;;;;6.88;1.45;;;26.40;99.90;;;;;;5039192;28;20212;-82
2021/12/25 09:03:59;;;;;;;6.55;1.40;;;26.40;99.90;;;;;;5042368;28;20201;-85
2021/12/25 09:06:31;;;;;;;6.40;1.17;;;26.40;99.90;;;;;;5053125;28;20604;-82
2021/12/25 09:09:06;;;;;;;6.30;1.30;;;26.40;99.90;;;;;;5044077;28;20193;-83
2021/12/25 09:11:37;;;;;;;5.03;1.25;;;26.40;99.90;;;;;;5041459;28;20232;-83
2021/12/25 09:14:14;;;;;;;6.03;1.20;;;26.40;99.90;;;;;;5028134;28;20202;-82
2021/12/25 09:16:46;;;;;;;4.65;1.20;;;26.50;99.90;;;;;;5028900;28;20202;-82
2021/12/25 09:19:20;;;;;;;7.35;1.38;;;26.40;99.90;;;;;;5030137;28;20208;-82
2021/12/25 09:21:50;;;;;;;8.85;1.40;;;26.50;99.90;;;;;;5032692;28;20380;-81
2021/12/25 09:24:21;;;;;;;4.13;1.13;;;26.40;99.90;;;;;;5037577;28;20612;-81
2021/12/25 09:26:52;;;;;;;5.95;1.23;;;26.40;99.90;;;;;;5038737;28;20751;-80
2021/12/25 09:29:25;;;;;;;5.20;1.27;;;26.40;99.90;;;;;;5041944;28;20201;-81
2021/12/25 09:32:02;;;;;;;5.45;1.38;;;26.40;99.90;;;;;;5039290;28;20201;-80
2021/12/25 09:34:33;;;;;;;7.55;1.30;;;26.30;99.90;;;;;;5036272;28;20220;-82
2021/12/25 09:37:06;;;;;;;8.85;1.40;;;26.30;99.90;;;;;;5035881;28;20208;-81
2021/12/25 09:39:37;;;;;;;5.75;1.30;;;26.30;99.90;;;;;;5036022;28;20193;-82
2021/12/25 09:42:09;;;;;;;4.65;1.27;;;26.30;99.90;;;;;;5042253;28;20197;-81
2021/12/25 09:44:40;;;;;;;6.55;1.30;;;26.30;99.90;;;;;;5043506;28;20201;-81
2021/12/25 09:47:16;;;;;;;5.50;1.23;;;26.30;99.90;;;;;;5039771;28;20233;-81
2021/12/25 09:49:50;;;;;;;5.00;1.10;;;26.20;99.90;;;;;;5037957;28;20221;-81
2021/12/25 09:52:23;;;;;;;5.38;1.30;;;26.20;99.90;;;;;;5038723;28;20284;-81
2021/12/25 09:55:00;;;;;;;6.65;1.23;;;26.20;99.90;;;;;;5044322;28;20224;-82
2021/12/25 09:57:34;;;;;;;5.38;1.23;;;26.20;99.90;;;;;;5040305;28;20193;-81
2021/12/25 10:00:24;;;;;;;8.18;1.25;;;26.20;99.90;;;;;;5043253;28;20239;-81
2021/12/25 10:03:01;;;;;;;5.22;1.25;;;26.10;99.90;;;;;;5043542;28;20197;-81
2021/12/25 10:05:37;;;;;;;7.25;1.35;;;26.10;99.90;;;;;;5043967;28;20197;-81
2021/12/25 10:08:12;;;;;;;7.97;1.50;;;26.10;99.90;;;;;;5037311;28;20215;-81
2021/12/25 10:10:59;;;;;;;5.55;1.25;;;26.10;99.90;;;;;;5039370;28;20251;-82
2021/12/25 10:13:35;;;;;;;7.22;1.33;;;26.10;99.90;;;;;;5044059;28;20196;-82
2021/12/25 10:16:21;;;;;;;6.55;1.38;;;26.00;99.90;;;;;;5055973;28;20209;-82
2021/12/25 10:19:19;;;;;;;6.40;1.13;;;26.00;99.90;;;;;;5040471;28;20560;-81
2021/12/25 10:21:55;;;;;;;5.88;1.27;;;26.00;99.90;;;;;;5039021;28;20204;-80
2021/12/25 10:24:29;;;;;;;7.85;1.60;;;26.10;99.90;;;;;;5040606;28;20577;-81
2021/12/25 10:27:16;;;;;;;5.22;1.30;;;26.10;99.90;;;;;;5039881;28;20284;-81
2021/12/25 10:29:50;;;;;;;9.40;1.50;;;26.10;99.90;;;;;;5039933;28;20299;-81
2021/12/25 10:32:27;;;;;;;6.85;1.60;;;26.10;99.90;;;;;;5020741;28;20228;-81
2021/12/25 10:35:20;;;;;;;7.65;1.63;;;26.00;99.90;;;;;;5018759;28;20186;-81
2021/12/25 10:37:54;;;;;;;9.45;1.55;;;26.00;99.90;;;;;;5041760;28;20201;-81
2021/12/25 10:40:27;;;;;;;6.53;1.65;;;25.90;99.90;;;;;;5031194;28;20200;-81
2021/12/25 10:43:09;;;;;;;7.60;1.75;;;25.90;99.90;;;;;;5019273;28;20194;-82
2021/12/25 10:45:43;;;;;;;8.05;1.73;;;25.90;99.90;;;;;;5018976;28;20204;-81
2021/12/25 10:48:24;;;;;;;6.65;1.60;;;25.90;99.90;;;;;;5052333;28;20240;-83
2021/12/25 10:51:13;;;;;;;4.65;1.30;;;25.90;99.90;;;;;;5062258;28;20220;-82
2021/12/25 10:53:45;;;;;;;7.45;1.52;;;25.90;99.90;;;;;;5053670;28;20213;-82
2021/12/25 10:56:21;;;;;;;8.98;1.50;;;25.90;99.90;;;;;;5042901;28;20552;-82
2021/12/25 10:58:52;;;;;;;5.97;1.33;;;25.90;99.90;;;;;;5030738;28;20197;-81
2021/12/25 11:01:23;;;;;;;6.60;1.50;;;25.80;99.90;;;;;;5025347;28;20228;-81
2021/12/25 11:03:53;;;;;;;6.53;1.70;;;25.90;99.90;;;;;;5025721;28;20209;-80
2021/12/25 11:06:32;;;;;;;8.38;1.42;;;25.80;99.90;;;;;;5063696;28;20197;-81
2021/12/25 11:09:05;;;;;;;10.70;1.55;;;25.80;99.90;;;;;;5044287;28;20204;-80
2021/12/25 11:11:36;;;;;;;8.50;1.70;;;25.80;99.90;;;;;;5037879;28;20232;-81
2021/12/25 11:14:12;;;;;;;9.13;1.75;;;25.80;99.90;;;;;;5040800;28;20201;-83
2021/12/25 11:16:52;;;;;;;6.97;1.67;;;25.80;99.90;;;;;;5024687;28;20198;-82
2021/12/25 11:19:31;;;;;;;5.75;1.25;;;25.80;99.90;;;;;;5056652;28;20231;-81
2021/12/25 11:22:07;;;;;;;6.63;1.58;;;25.80;99.90;;;;;;5052304;28;20200;-81
2021/12/25 11:24:43;;;;;;;9.68;1.75;;;25.80;99.90;;;;;;5057474;28;20569;-81
2021/12/25 11:27:20;;;;;;;10.80;1.83;;;25.70;99.90;;;;;;5045536;28;20619;-81
2021/12/25 11:29:57;;;;;;;9.63;1.50;;;25.70;99.90;;;;;;5041261;28;20599;-81
2021/12/25 11:32:31;;;;;;;7.13;1.48;;;25.70;99.90;;;;;;5035243;28;20291;-81
2021/12/25 11:35:02;;;;;;;7.43;1.50;;;25.70;99.90;;;;;;5030444;28;20680;-81
2021/12/25 11:37:34;;;;;;;9.80;1.55;;;25.70;99.90;;;;;;5034445;28;20328;-81
2021/12/25 11:40:06;;;;;;;7.10;1.42;;;25.70;99.90;;;;;;5052119;28;20204;-81
2021/12/25 11:42:41;;;;;;;9.57;1.60;;;25.70;99.90;;;;;;5054179;28;20207;-81
2021/12/25 11:45:18;;;;;;;5.20;1.30;;;25.70;99.90;;;;;;5039736;28;20196;-81
2021/12/25 11:47:52;;;;;;;7.95;1.42;;;25.60;99.90;;;;;;5032485;28;20878;-81
2021/12/25 11:50:25;;;;;;;8.52;1.67;;;25.50;99.90;;;;;;5033437;28;20228;-80
2021/12/25 11:53:16;;;;;;;4.20;1.23;;;25.50;99.90;;;;;;5034546;28;20714;-81
2021/12/25 11:56:18;;;;;;;7.43;1.42;;;25.50;99.90;;;;;;5041082;28;20224;-81
2021/12/25 11:58:53;;;;;;;9.32;1.48;;;25.50;99.90;;;;;;5036264;28;20205;-81
2021/12/25 12:01:27;;;;;;;7.00;1.23;;;25.40;99.90;;;;;;5033422;28;20201;-81
2021/12/25 12:04:00;;;;;;;5.47;1.55;;;25.40;99.90;;;;;;5034947;28;20220;-81
2021/12/25 12:06:59;;;;;;;11.40;1.80;;;25.40;99.90;;;;;;5035673;28;20189;-81
2021/12/25 12:09:34;;;;;;;9.27;1.85;;;25.40;99.90;;;;;;5034186;28;20197;-81
2021/12/25 12:12:21;;;;;;;4.82;1.30;;;25.40;99.90;;;;;;5033111;28;20231;-81
2021/12/25 12:15:15;;;;;;;8.52;1.45;;;25.40;99.90;;;;;;5030835;28;20197;-82
2021/12/25 12:17:47;;;;;;;7.60;1.73;;;25.40;99.90;;;;;;5031943;28;20626;-81
2021/12/25 12:20:39;;;;;;;5.82;1.35;;;25.40;99.90;;;;;;5029413;28;20197;-82
2021/12/25 12:23:36;;;;;;;4.65;1.30;;;25.40;99.90;;;;;;5030188;28;20663;-83
2021/12/25 12:26:11;;;;;;;6.10;1.50;;;25.40;99.90;;;;;;5010234;28;20669;-82
2021/12/25 12:28:52;;;;;;;7.05;1.30;;;25.30;99.90;;;;;;5010353;28;20201;-82
2021/12/25 12:31:41;;;;;;;7.35;1.65;;;25.30;99.90;;;;;;5010682;28;20257;-82
2021/12/25 12:34:37;;;;;;;9.52;1.65;;;25.30;99.90;;;;;;5010531;28;20203;-82
2021/12/25 12:37:32;;;;;;;6.18;1.30;;;25.20;99.90;;;;;;5021938;28;20206;-82
2021/12/25 12:40:23;;;;;;;6.22;1.17;;;25.20;99.90;;;;;;5012929;28;20225;-82
2021/12/25 12:43:00;;;;;;;5.68;1.13;;;25.20;99.90;;;;;;5022884;28;20220;-83
2021/12/25 12:45:33;;;;;;;4.25;1.17;;;25.20;99.90;;;;;;5031275;28;20563;-81
2021/12/25 12:48:16;;;;;;;4.95;1.38;;;25.10;99.90;;;;;;5030809;28;20240;-81
2021/12/25 12:50:48;;;;;;;6.50;1.20;;;25.10;99.90;;;;;;5030417;28;20323;-81
2021/12/25 12:53:20;;;;;;;6.78;1.30;;;25.10;99.90;;;;;;5030477;28;20722;-81
2021/12/25 12:55:52;;;;;;;7.25;1.77;;;25.00;99.90;;;;;;5030257;28;20207;-82
2021/12/25 12:58:25;;;;;;;8.45;1.67;;;25.00;99.90;;;;;;5030740;28;20255;-81
2021/12/25 13:00:57;;;;;;;5.68;1.10;;;25.00;99.90;;;;;;5024622;28;20715;-81
2021/12/25 13:03:29;;;;;;;7.68;1.70;;;25.00;99.90;;;;;;5028953;28;20693;-81
2021/12/25 13:06:04;;;;;;;7.47;1.45;;;24.90;99.90;;;;;;5030079;28;20603;-81
2021/12/25 13:08:39;;;;;;;6.53;1.40;;;24.90;99.90;;;;;;5029479;28;20239;-81
2021/12/25 13:11:14;;;;;;;6.07;1.35;;;25.00;99.90;;;;;;5009715;28;20696;-81
2021/12/25 13:13:52;;;;;;;6.45;1.30;;;25.00;99.90;;;;;;5009900;28;20228;-82
2021/12/25 13:16:25;;;;;;;6.03;1.63;;;25.00;99.90;;;;;;5010093;28;20198;-81
2021/12/25 13:18:57;;;;;;;9.02;1.85;;;25.00;99.90;;;;;;5023892;28;20222;-81
2021/12/25 13:21:30;;;;;;;6.78;1.92;;;25.00;99.90;;;;;;5027503;28;20198;-81
2021/12/25 13:24:05;;;;;;;6.43;1.52;;;25.00;99.90;;;;;;5019331;28;20641;-81
2021/12/25 13:26:40;;;;;;;5.50;1.38;;;25.00;99.90;;;;;;5025304;28;20271;-81
2021/12/25 13:29:17;;;;;;;5.80;1.40;;;25.00;99.90;;;;;;5023792;28;20205;-81
2021/12/25 13:31:48;;;;;;;5.05;1.38;;;25.00;99.90;;;;;;5029892;28;20781;-82
2021/12/25 13:34:23;;;;;;;5.75;1.25;;;24.90;99.90;;;;;;5033086;28;20201;-82
2021/12/25 13:36:56;;;;;;;6.97;1.20;;;24.90;99.90;;;;;;5033666;28;20193;-82
2021/12/25 13:39:28;;;;;;;6.85;1.60;;;24.90;99.90;;;;;;5030308;28;20193;-82
2021/12/25 13:42:08;;;;;;;7.97;1.23;;;24.90;99.90;;;;;;5013106;28;20224;-81
2021/12/25 13:44:42;;;;;;;5.32;1.30;;;24.80;99.90;;;;;;5030301;28;20271;-82
2021/12/25 13:47:23;;;;;;;5.85;1.15;;;24.80;99.90;;;;;;5033928;28;20229;-82
2021/12/25 13:49:56;;;;;;;3.65;1.00;;;24.80;99.90;;;;;;5013378;28;20233;-81
2021/12/25 13:52:31;;;;;;;5.90;1.48;;;24.80;99.90;;;;;;5013118;28;20713;-82
2021/12/25 13:55:10;;;;;;;5.95;1.50;;;24.80;99.90;;;;;;5024117;28;20259;-82
2021/12/25 13:57:45;;;;;;;5.50;1.38;;;24.80;99.90;;;;;;5032649;28;20747;-82
2021/12/25 14:00:21;;;;;;;5.57;1.17;;;24.80;99.90;;;;;;5032230;28;20201;-82
2021/12/25 14:02:54;;;;;;;5.82;1.40;;;24.80;99.90;;;;;;5032592;28;20200;-82
2021/12/25 14:05:28;;;;;;;5.03;1.30;;;24.80;99.90;;;;;;5032829;28;20212;-82
2021/12/25 14:07:59;;;;;;;5.55;1.30;;;24.70;99.90;;;;;;5046398;28;20201;-81
2021/12/25 14:10:31;;;;;;;6.43;1.40;;;24.70;99.90;;;;;;5052891;28;20197;-83
2021/12/25 14:13:04;;;;;;;4.85;1.08;;;24.70;99.90;;;;;;5033752;28;20232;-82
2021/12/25 14:15:38;;;;;;;4.95;1.30;;;24.70;99.90;;;;;;5032231;28;20209;-82